createdAt,value
2018-08-24T00:03:24.246Z,64.05
2018-08-24T00:11:45.352Z,63.80
2018-08-24T00:20:06.416Z,66.10
2018-08-24T00:28:27.412Z,63.60
2018-08-24T00:36:48.427Z,63.08
2018-08-24T00:45:09.491Z,64.54
2018-08-24T00:53:30.510Z,70.56
2018-08-24T01:01:51.628Z,75.15
2018-08-24T01:10:12.694Z,74.51
2018-08-24T01:18:34.829Z,73.92
2018-08-24T01:34:12.081Z,72.90
2018-08-24T01:42:33.117Z,72.70
2018-08-24T01:50:54.120Z,71.75
2018-08-24T01:59:15.159Z,70.90
2018-08-24T02:07:36.173Z,71.05
2018-08-24T02:15:57.177Z,70.97
2018-08-24T02:24:18.272Z,69.46
2018-08-24T02:32:39.320Z,71.63
2018-08-24T02:41:00.364Z,71.04
2018-08-24T02:49:21.360Z,71.74
2018-08-24T02:57:42.467Z,73.52
2018-08-24T03:06:03.496Z,72.50
2018-08-24T03:14:24.515Z,71.59
2018-08-24T03:22:45.580Z,71.76
2018-08-24T03:31:06.650Z,72.62
2018-08-24T03:39:27.647Z,72.74
2018-08-24T03:47:48.650Z,73.18
2018-08-24T03:56:09.713Z,72.09
2018-08-24T04:04:30.775Z,72.14
2018-08-24T04:12:51.951Z,72.06
2018-08-24T04:21:13.039Z,71.18
2018-08-24T04:29:34.308Z,70.99
2018-08-24T04:37:55.346Z,71.20
2018-08-24T04:46:16.367Z,71.13
2018-08-24T04:54:37.398Z,70.59
2018-08-24T05:02:58.456Z,70.04
2018-08-24T05:11:19.599Z,70.60
2018-08-24T05:23:51.251Z,70.46
2018-08-24T05:32:12.279Z,68.83
2018-08-24T05:40:33.326Z,68.27
2018-08-24T05:48:54.523Z,67.72
2018-08-24T05:57:15.517Z,67.14
2018-08-24T06:05:36.650Z,69.60
2018-08-24T06:13:57.689Z,67.36
2018-08-24T06:22:18.712Z,67.41
2018-08-24T06:30:39.761Z,68.53
2018-08-24T06:39:00.830Z,68.63
2018-08-24T06:47:21.952Z,70.12
2018-08-24T06:55:42.902Z,69.18
2018-08-24T07:04:03.967Z,67.27
2018-08-24T07:12:25.107Z,67.67
2018-08-24T07:20:46.147Z,71.68
2018-08-24T07:29:07.223Z,91.43
2018-08-24T08:16:50.615Z,91.43
2018-08-24T08:25:15.907Z,91.43
2018-08-24T10:45:39.323Z,45.58
2018-08-24T10:54:00.326Z,42.15
2018-08-24T11:02:21.385Z,42.34
2018-08-24T11:10:42.432Z,40.70
2018-08-24T11:19:04.521Z,36.36
2018-08-24T11:27:25.664Z,38.28
2018-08-24T11:35:46.732Z,40.05
2018-08-24T11:44:07.731Z,36.81
2018-08-24T11:52:29.804Z,34.63
2018-08-24T12:00:50.852Z,35.88
2018-08-24T12:09:11.913Z,34.83
2018-08-24T12:19:16.980Z,34.10
2018-08-24T12:27:37.991Z,35.63
2018-08-24T12:35:59.087Z,31.03
2018-08-24T12:44:20.126Z,25.23
2018-08-24T12:52:41.156Z,24.28
2018-08-24T13:01:02.194Z,23.96
2018-08-24T13:09:24.306Z,24.10
2018-08-24T13:17:45.322Z,24.21
2018-08-24T13:26:06.345Z,24.28
2018-08-24T13:34:27.364Z,23.49
2018-08-24T13:42:48.494Z,23.38
2018-08-24T13:51:09.896Z,27.53
2018-08-24T13:59:30.988Z,29.46
2018-08-24T14:07:51.960Z,30.64
2018-08-24T14:16:12.989Z,30.93
2018-08-24T14:24:34.015Z,28.83
2018-08-24T14:32:55.397Z,29.73
2018-08-24T14:41:17.522Z,29.37
2018-08-24T14:49:38.530Z,28.75
2018-08-24T14:57:59.851Z,29.20
2018-08-24T15:06:20.856Z,31.73
2018-08-24T15:14:41.897Z,33.09
2018-08-24T15:23:03.014Z,33.65
2018-08-24T15:31:25.130Z,33.86
2018-08-24T15:39:46.252Z,33.82
2018-08-24T15:48:07.271Z,34.98
2018-08-24T15:56:28.272Z,34.98
2018-08-24T16:04:49.310Z,35.14
2018-08-24T16:13:12.415Z,34.97
2018-08-24T16:30:00.423Z,32.00
2018-08-24T16:38:21.451Z,32.62
2018-08-24T16:46:42.506Z,33.02
2018-08-24T16:55:03.559Z,33.04
2018-08-24T17:03:24.585Z,32.87
2018-08-24T17:11:45.755Z,34.94
2018-08-24T17:20:08.828Z,37.61
2018-08-24T17:28:30.938Z,35.89
2018-08-24T17:36:51.940Z,37.71
2018-08-24T17:45:13.287Z,38.55
2018-08-24T17:53:34.318Z,39.47
2018-08-24T18:01:55.359Z,39.86
2018-08-24T18:10:16.399Z,40.06
2018-08-24T18:18:37.396Z,40.38
2018-08-24T18:26:58.392Z,40.99
2018-08-24T18:35:19.426Z,39.91
2018-08-24T18:43:40.517Z,40.97
2018-08-24T18:52:01.544Z,41.12
2018-08-24T19:00:23.620Z,40.87
2018-08-24T19:08:44.708Z,40.79
2018-08-24T19:17:05.736Z,41.37
2018-08-24T19:25:26.847Z,42.45
2018-08-24T19:33:47.920Z,42.45
2018-08-24T19:42:08.943Z,43.97
2018-08-24T19:50:29.960Z,46.88
2018-08-24T19:58:51.053Z,48.02
2018-08-24T20:07:12.043Z,48.71
2018-08-24T20:15:33.060Z,50.20
2018-08-24T20:23:54.200Z,50.73
2018-08-24T20:38:56.136Z,52.73
2018-08-24T20:47:17.209Z,51.77
2018-08-24T20:55:38.245Z,52.46
2018-08-24T21:08:19.267Z,51.98
2018-08-24T21:16:40.314Z,53.91
2018-08-24T21:25:01.308Z,53.60
2018-08-24T21:33:22.346Z,54.91
2018-08-24T21:41:43.462Z,55.05
2018-08-24T21:50:04.495Z,55.63
2018-08-24T21:58:25.520Z,54.57
2018-08-24T22:06:46.595Z,55.75
2018-08-24T22:15:07.615Z,55.67
2018-08-24T22:23:28.620Z,55.44
2018-08-24T22:31:49.635Z,54.49
2018-08-24T22:40:10.750Z,52.75
2018-08-24T22:48:31.748Z,51.30
2018-08-24T22:56:52.858Z,49.46
2018-08-24T23:05:13.992Z,50.29
2018-08-24T23:13:35.031Z,48.79
2018-08-24T23:24:06.475Z,48.37
2018-08-24T23:32:28.584Z,48.99
2018-08-24T23:40:49.670Z,48.56
2018-08-24T23:49:10.799Z,47.52
2018-08-24T23:57:31.797Z,47.80
